createdAt,value
2023-01-25T00:09:53.537Z,10.29
2023-01-25T00:24:55.049Z,10.26
2023-01-25T00:39:56.613Z,10.30
2023-01-25T00:54:58.263Z,10.28
2023-01-25T01:10:00.395Z,10.24
2023-01-25T01:25:02.165Z,10.28
2023-01-25T01:40:03.899Z,10.23
2023-01-25T01:55:08.450Z,10.28
2023-01-25T02:10:12.475Z,10.28
2023-01-25T02:25:14.850Z,10.24
2023-01-25T02:40:17.395Z,10.24
2023-01-25T02:55:19.129Z,10.23
2023-01-25T03:10:20.731Z,10.17
2023-01-25T03:25:22.301Z,10.18
2023-01-25T03:40:23.956Z,10.29
2023-01-25T03:55:25.504Z,10.20
2023-01-25T04:10:27.116Z,10.17
2023-01-25T04:25:28.638Z,10.22
2023-01-25T04:40:30.547Z,10.15
2023-01-25T04:55:33.762Z,10.15
2023-01-25T05:10:35.431Z,10.12
2023-01-25T05:25:55.471Z,10.10
2023-01-25T05:40:58.242Z,10.12
2023-01-25T05:56:06.800Z,10.14
2023-01-25T06:11:12.363Z,10.13
2023-01-25T06:26:14.742Z,10.13
2023-01-25T06:41:16.375Z,10.10
2023-01-25T06:56:21.869Z,10.06
2023-01-25T07:11:23.409Z,10.08
2023-01-25T07:26:26.049Z,10.05
2023-01-25T07:41:27.820Z,10.10
2023-01-25T07:56:30.954Z,10.05
2023-01-25T08:11:32.912Z,10.03
2023-01-25T08:26:35.434Z,10.12
2023-01-25T08:41:37.006Z,10.03
2023-01-25T08:56:39.744Z,9.99
2023-01-25T09:11:41.284Z,10.02
2023-01-25T09:26:45.992Z,10.05
2023-01-25T09:42:13.906Z,10.03
2023-01-25T09:57:16.030Z,10.08
2023-01-25T10:12:25.214Z,10.06
2023-01-25T10:27:33.283Z,10.08
2023-01-25T10:42:41.316Z,10.02
2023-01-25T10:57:48.930Z,10.04
2023-01-25T11:13:10.593Z,10.08
2023-01-25T11:28:20.044Z,10.06
2023-01-25T11:43:24.608Z,10.04
2023-01-25T11:58:26.396Z,10.02
2023-01-25T12:13:47.520Z,10.00
2023-01-25T12:28:52.078Z,10.01
2023-01-25T12:43:59.851Z,9.97
2023-01-25T12:59:16.673Z,9.96
2023-01-25T13:14:18.231Z,9.91
2023-01-25T13:29:31.981Z,9.96
2023-01-25T13:44:35.304Z,9.95
2023-01-25T13:59:36.896Z,9.94
2023-01-25T14:14:38.879Z,9.92
2023-01-25T14:29:40.544Z,9.97
2023-01-25T14:44:42.660Z,9.93
2023-01-25T14:59:51.056Z,9.90
2023-01-25T15:14:53.583Z,9.88
2023-01-25T15:29:55.232Z,9.90
2023-01-25T15:44:56.768Z,9.88
2023-01-25T16:00:00.581Z,9.88
2023-01-25T16:15:03.527Z,9.86
2023-01-25T16:30:07.638Z,9.86
2023-01-25T16:45:09.718Z,9.84
2023-01-25T17:00:13.224Z,9.85
2023-01-25T17:15:14.801Z,9.83
2023-01-25T17:30:18.455Z,9.82
2023-01-25T17:45:19.978Z,9.84
2023-01-25T18:00:21.671Z,9.89
2023-01-25T18:15:23.621Z,9.87
2023-01-25T18:30:33.646Z,9.86
2023-01-25T18:45:35.241Z,9.84
2023-01-25T19:00:36.773Z,9.85
2023-01-25T19:15:38.509Z,9.85
2023-01-25T19:30:40.002Z,9.84
2023-01-25T19:45:41.597Z,9.85
2023-01-25T20:00:43.102Z,9.88
2023-01-25T20:15:47.954Z,9.88
2023-01-25T20:30:49.844Z,9.85
2023-01-25T20:45:54.244Z,9.87
2023-01-25T21:00:56.058Z,9.86
2023-01-25T21:15:57.526Z,9.79
2023-01-25T21:31:06.261Z,9.80
2023-01-25T21:46:13.677Z,9.78
2023-01-25T22:01:15.322Z,9.78
2023-01-25T22:16:16.904Z,9.71
2023-01-25T22:31:19.459Z,9.75
2023-01-25T22:46:21.966Z,9.74
2023-01-25T23:01:25.194Z,9.74
2023-01-25T23:16:26.645Z,9.70
2023-01-25T23:31:28.220Z,9.69
2023-01-25T23:46:29.891Z,9.65
